createdAt,value
2022-11-07T00:02:03.002Z,18.48
2022-11-07T00:04:31.612Z,19.37
2022-11-07T00:07:08.681Z,18.98
2022-11-07T00:09:40.785Z,19.27
2022-11-07T00:12:08.195Z,18.67
2022-11-07T00:14:35.774Z,18.55
2022-11-07T00:17:03.184Z,18.52
2022-11-07T00:19:33.066Z,17.75
2022-11-07T00:22:00.876Z,18.20
2022-11-07T00:24:28.214Z,17.40
2022-11-07T00:26:56.148Z,17.63
2022-11-07T00:29:23.708Z,17.35
2022-11-07T00:31:50.975Z,17.23
2022-11-07T00:34:18.418Z,17.13
2022-11-07T00:36:45.765Z,17.50
2022-11-07T00:39:13.173Z,17.73
2022-11-07T00:41:40.891Z,17.25
2022-11-07T00:44:10.183Z,16.17
2022-11-07T00:46:37.294Z,16.75
2022-11-07T00:49:04.503Z,16.60
2022-11-07T00:51:32.376Z,16.77
2022-11-07T00:54:01.427Z,16.38
2022-11-07T00:56:37.798Z,16.85
2022-11-07T00:59:05.091Z,16.80
2022-11-07T01:01:36.790Z,16.13
2022-11-07T01:04:25.612Z,16.40
2022-11-07T01:06:52.385Z,15.80
2022-11-07T01:09:22.539Z,15.95
2022-11-07T01:11:50.060Z,15.13
2022-11-07T01:14:26.567Z,15.20
2022-11-07T01:16:59.015Z,15.02
2022-11-07T01:19:26.233Z,15.38
2022-11-07T01:21:53.568Z,15.00
2022-11-07T01:24:20.829Z,15.63
2022-11-07T01:26:48.212Z,15.38
2022-11-07T01:29:21.759Z,15.65
2022-11-07T01:31:49.046Z,16.23
2022-11-07T01:34:19.689Z,16.00
2022-11-07T01:36:49.056Z,16.67
2022-11-07T01:39:16.504Z,16.98
2022-11-07T01:41:43.761Z,17.38
2022-11-07T01:44:10.450Z,17.05
2022-11-07T01:46:41.651Z,16.67
2022-11-07T01:49:11.404Z,16.42
2022-11-07T01:51:44.251Z,16.95
2022-11-07T01:54:13.361Z,16.23
2022-11-07T01:56:43.277Z,17.27
2022-11-07T01:59:13.778Z,15.85
2022-11-07T02:01:41.716Z,15.73
2022-11-07T02:04:09.597Z,15.88
2022-11-07T02:07:04.617Z,16.15
2022-11-07T02:09:32.069Z,15.82
2022-11-07T02:12:01.135Z,15.82
2022-11-07T02:14:29.171Z,16.65
2022-11-07T02:16:57.039Z,15.88
2022-11-07T02:19:47.383Z,15.75
2022-11-07T02:22:34.661Z,16.43
2022-11-07T02:25:06.639Z,16.15
2022-11-07T02:27:34.704Z,17.38
2022-11-07T02:30:09.143Z,16.23
2022-11-07T02:32:36.069Z,15.77
2022-11-07T02:35:07.591Z,16.80
2022-11-07T02:37:37.611Z,16.70
2022-11-07T02:40:08.341Z,16.63
2022-11-07T02:42:44.156Z,16.80
2022-11-07T02:45:19.122Z,16.80
2022-11-07T02:47:46.051Z,17.35
2022-11-07T02:50:15.394Z,16.33
2022-11-07T02:52:42.467Z,16.20
2022-11-07T02:55:10.173Z,16.42
2022-11-07T02:57:36.993Z,16.73
2022-11-07T03:00:05.309Z,16.58
2022-11-07T03:02:32.160Z,17.27
2022-11-07T03:04:59.147Z,16.70
2022-11-07T03:07:26.061Z,16.52
2022-11-07T03:09:53.549Z,17.40
2022-11-07T03:12:20.656Z,17.58
2022-11-07T03:14:47.410Z,17.23
2022-11-07T03:17:14.182Z,18.38
2022-11-07T03:19:40.956Z,17.67
2022-11-07T03:22:07.711Z,17.85
2022-11-07T03:24:34.424Z,18.20
2022-11-07T03:27:01.163Z,17.70
2022-11-07T03:29:27.879Z,17.48
2022-11-07T03:31:54.699Z,17.92
2022-11-07T03:34:21.432Z,17.92
2022-11-07T03:36:48.266Z,17.98
2022-11-07T03:39:15.056Z,19.05
2022-11-07T03:41:41.849Z,18.63
2022-11-07T03:44:08.627Z,18.48
2022-11-07T03:46:35.387Z,18.23
2022-11-07T03:49:02.161Z,18.13
2022-11-07T03:51:28.889Z,18.17
2022-11-07T03:53:55.621Z,18.27
2022-11-07T03:56:22.909Z,18.55
2022-11-07T03:58:49.873Z,18.63
2022-11-07T04:01:16.803Z,16.42
2022-11-07T04:03:43.634Z,17.67
2022-11-07T04:06:10.403Z,19.25
2022-11-07T04:08:37.233Z,19.10
2022-11-07T04:11:03.967Z,19.75
2022-11-07T04:13:48.883Z,20.08
2022-11-07T04:16:37.035Z,19.70
2022-11-07T04:19:04.348Z,20.30
2022-11-07T04:21:31.110Z,19.38
2022-11-07T04:23:57.812Z,19.60
2022-11-07T04:26:43.235Z,19.40
2022-11-07T04:29:09.957Z,19.17
2022-11-07T04:31:36.643Z,19.83
2022-11-07T04:34:03.348Z,19.15
2022-11-07T04:36:30.122Z,19.60
2022-11-07T04:38:56.865Z,19.13
2022-11-07T04:41:24.466Z,18.98
2022-11-07T04:43:51.788Z,18.33
2022-11-07T04:46:18.649Z,18.77
2022-11-07T04:48:45.482Z,18.92
2022-11-07T04:51:18.160Z,19.58
2022-11-07T04:53:44.947Z,19.08
2022-11-07T04:56:11.709Z,20.10
2022-11-07T04:58:38.464Z,19.08
2022-11-07T05:01:05.284Z,19.20
2022-11-07T05:03:32.012Z,19.30
2022-11-07T05:05:59.394Z,19.23
2022-11-07T05:08:26.121Z,19.20
2022-11-07T05:10:53.003Z,19.40
2022-11-07T05:13:19.698Z,19.33
2022-11-07T05:15:46.568Z,19.27
2022-11-07T05:18:13.357Z,20.48
2022-11-07T05:20:40.324Z,19.35
2022-11-07T05:23:15.694Z,18.48
2022-11-07T05:25:45.077Z,19.90
2022-11-07T05:28:13.867Z,18.25
2022-11-07T05:30:42.192Z,18.60
2022-11-07T05:33:10.535Z,19.05
2022-11-07T05:35:37.663Z,18.17
2022-11-07T05:38:04.658Z,18.25
2022-11-07T05:40:32.295Z,18.08
2022-11-07T05:43:00.799Z,18.98
2022-11-07T05:45:28.736Z,19.40
2022-11-07T05:48:03.433Z,18.50
2022-11-07T05:50:30.631Z,18.90
2022-11-07T05:52:58.308Z,18.25
2022-11-07T05:55:26.382Z,17.00
2022-11-07T05:57:54.120Z,18.08
2022-11-07T06:00:21.073Z,17.48
2022-11-07T06:03:00.615Z,17.02
2022-11-07T06:05:29.108Z,16.77
2022-11-07T06:07:56.130Z,17.50
2022-11-07T06:10:24.229Z,17.85
2022-11-07T06:13:02.022Z,17.73
2022-11-07T06:15:30.866Z,18.90
2022-11-07T06:18:01.902Z,18.90
2022-11-07T06:22:59.846Z,18.65
2022-11-07T06:27:54.253Z,20.00
2022-11-07T06:30:21.046Z,19.60
2022-11-07T06:32:47.828Z,19.27
2022-11-07T06:35:14.675Z,20.08
2022-11-07T06:37:41.538Z,19.33
2022-11-07T06:40:09.364Z,19.50
2022-11-07T06:42:36.328Z,19.50
2022-11-07T06:45:03.316Z,20.67
2022-11-07T06:47:30.058Z,20.98
2022-11-07T06:49:56.890Z,20.45
2022-11-07T06:52:23.766Z,20.58
2022-11-07T06:54:50.606Z,20.60
2022-11-07T06:57:17.349Z,20.70
2022-11-07T06:59:50.436Z,19.85
2022-11-07T07:02:37.298Z,20.52
2022-11-07T07:05:05.700Z,20.77
2022-11-07T07:07:32.884Z,20.10
2022-11-07T07:09:59.790Z,20.85
2022-11-07T07:12:26.747Z,21.30
2022-11-07T07:14:53.566Z,20.95
2022-11-07T07:17:20.308Z,21.77
2022-11-07T07:19:47.121Z,21.40
2022-11-07T07:22:14.392Z,21.08
2022-11-07T07:24:41.191Z,22.17
2022-11-07T07:27:07.968Z,22.60
2022-11-07T07:29:35.967Z,21.30
2022-11-07T07:32:02.771Z,21.38
2022-11-07T07:34:29.585Z,22.13
2022-11-07T07:36:56.414Z,22.60
2022-11-07T07:39:24.597Z,21.80
2022-11-07T07:41:51.474Z,21.58
2022-11-07T07:44:21.389Z,21.92
2022-11-07T07:46:48.147Z,21.63
2022-11-07T07:49:14.944Z,21.63
2022-11-07T07:51:41.784Z,20.33
2022-11-07T07:54:10.542Z,21.40
2022-11-07T07:56:37.501Z,20.63
2022-11-07T07:59:04.744Z,21.73
2022-11-07T08:01:31.641Z,21.33
2022-11-07T08:04:02.043Z,20.65
2022-11-07T08:06:30.289Z,21.30
2022-11-07T08:08:57.125Z,20.85
2022-11-07T08:11:23.984Z,21.55
2022-11-07T08:13:50.731Z,21.05
2022-11-07T08:16:17.761Z,20.92
2022-11-07T08:18:44.493Z,21.33
2022-11-07T08:21:11.351Z,20.88
2022-11-07T08:23:38.177Z,21.80
2022-11-07T08:26:05.476Z,21.83
2022-11-07T08:28:35.498Z,21.33
2022-11-07T08:31:12.040Z,21.90
2022-11-07T08:33:39.332Z,20.60
2022-11-07T08:36:07.219Z,21.42
2022-11-07T08:38:35.514Z,21.00
2022-11-07T08:41:02.644Z,21.17
2022-11-07T08:43:29.752Z,19.90
2022-11-07T08:45:56.514Z,21.15
2022-11-07T08:48:23.785Z,20.67
2022-11-07T08:50:55.255Z,20.65
2022-11-07T08:53:23.329Z,20.58
2022-11-07T08:55:50.362Z,21.33
2022-11-07T08:58:17.950Z,20.17
2022-11-07T09:00:44.986Z,20.92
2022-11-07T09:06:01.293Z,19.85
2022-11-07T09:08:28.314Z,20.73
2022-11-07T09:10:55.132Z,19.67
2022-11-07T09:13:21.986Z,21.13
2022-11-07T09:15:51.304Z,20.45
2022-11-07T09:18:19.747Z,21.63
2022-11-07T09:20:47.399Z,20.67
2022-11-07T09:23:14.604Z,20.65
2022-11-07T09:25:41.973Z,20.83
2022-11-07T09:28:09.392Z,20.55
2022-11-07T09:30:36.415Z,20.85
2022-11-07T09:33:03.269Z,20.35
2022-11-07T09:35:30.044Z,19.95
2022-11-07T09:37:56.844Z,20.48
2022-11-07T09:40:48.840Z,20.50
2022-11-07T09:43:24.792Z,19.35
2022-11-07T09:46:01.404Z,19.92
2022-11-07T09:48:37.273Z,20.27
2022-11-07T09:51:04.879Z,20.33
2022-11-07T09:53:36.901Z,19.58
2022-11-07T09:56:05.290Z,19.58
2022-11-07T09:58:40.819Z,19.15
2022-11-07T10:01:13.483Z,18.88
2022-11-07T10:03:49.039Z,20.25
2022-11-07T10:06:36.752Z,20.17
2022-11-07T10:09:23.741Z,19.33
2022-11-07T10:11:50.478Z,19.55
2022-11-07T10:14:30.775Z,18.63
2022-11-07T10:17:00.546Z,19.08
2022-11-07T10:19:39.561Z,18.20
2022-11-07T10:22:26.526Z,19.00
2022-11-07T10:25:31.108Z,19.52
2022-11-07T10:28:19.551Z,19.33
2022-11-07T10:30:51.516Z,18.20
2022-11-07T10:33:44.936Z,18.20
2022-11-07T10:36:25.069Z,18.58
2022-11-07T10:38:52.202Z,18.40
2022-11-07T10:41:20.613Z,20.05
2022-11-07T10:44:00.961Z,18.05
2022-11-07T10:46:39.107Z,18.35
2022-11-07T10:49:20.262Z,17.70
2022-11-07T10:54:26.213Z,18.75
2022-11-07T10:57:07.324Z,17.90
2022-11-07T11:02:21.782Z,19.27
2022-11-07T11:04:55.185Z,17.80
2022-11-07T11:07:28.390Z,17.42
2022-11-07T11:09:57.881Z,18.17
2022-11-07T11:12:33.951Z,17.73
2022-11-07T11:15:04.216Z,17.83
2022-11-07T11:17:31.312Z,18.80
2022-11-07T11:19:58.254Z,22.50
2022-11-07T11:22:25.930Z,18.08
2022-11-07T11:25:20.006Z,17.83
2022-11-07T11:27:56.390Z,18.15
2022-11-07T11:30:24.107Z,18.65
2022-11-07T11:33:05.491Z,17.48
2022-11-07T11:35:49.849Z,16.85
2022-11-07T11:38:38.575Z,17.40
2022-11-07T11:41:32.929Z,18.05
2022-11-07T11:44:16.514Z,17.23
2022-11-07T11:47:00.830Z,18.33
2022-11-07T11:49:50.286Z,17.98
2022-11-07T11:52:21.879Z,17.77
2022-11-07T11:54:51.430Z,17.70
2022-11-07T11:57:24.314Z,18.23
2022-11-07T12:00:16.763Z,19.02
2022-11-07T12:03:07.201Z,18.33
2022-11-07T12:05:45.866Z,17.88
2022-11-07T12:08:27.718Z,17.80
2022-11-07T12:11:13.408Z,17.27
2022-11-07T12:14:03.970Z,18.02
2022-11-07T12:16:41.776Z,17.95
2022-11-07T12:19:27.236Z,18.15
2022-11-07T12:21:59.347Z,18.20
2022-11-07T12:24:54.922Z,18.50
2022-11-07T12:27:27.888Z,18.58
2022-11-07T12:30:30.135Z,19.05
2022-11-07T12:33:16.718Z,17.38
2022-11-07T12:35:45.925Z,18.52
2022-11-07T12:38:27.857Z,18.70
2022-11-07T12:41:24.110Z,17.75
2022-11-07T12:44:12.027Z,17.75
2022-11-07T12:46:51.778Z,17.08
2022-11-07T12:49:57.047Z,16.73
2022-11-07T12:52:36.086Z,16.77
2022-11-07T12:55:16.403Z,16.95
2022-11-07T12:57:43.995Z,16.48
2022-11-07T13:00:30.738Z,16.83
2022-11-07T13:03:25.371Z,16.05
2022-11-07T13:06:18.609Z,16.83
2022-11-07T13:09:07.577Z,16.42
2022-11-07T13:12:06.457Z,17.20
2022-11-07T13:14:41.429Z,17.20
2022-11-07T13:17:20.190Z,17.58
2022-11-07T13:20:06.377Z,16.60
2022-11-07T13:22:41.215Z,17.58
2022-11-07T13:25:17.039Z,17.20
2022-11-07T13:28:01.681Z,17.73
2022-11-07T13:30:31.053Z,17.75
2022-11-07T13:32:59.268Z,17.90
2022-11-07T13:35:34.105Z,16.83
2022-11-07T13:38:08.485Z,17.27
2022-11-07T13:40:49.593Z,16.35
2022-11-07T13:43:26.909Z,15.88
2022-11-07T13:46:01.306Z,16.27
2022-11-07T13:48:40.182Z,15.68
2022-11-07T13:51:34.073Z,17.63
2022-11-07T13:54:06.574Z,17.88
2022-11-07T13:56:40.468Z,17.63
2022-11-07T13:59:14.244Z,18.10
2022-11-07T14:01:43.391Z,17.00
2022-11-07T14:04:20.120Z,17.70
2022-11-07T14:06:47.683Z,17.48
2022-11-07T14:09:18.087Z,17.23
2022-11-07T14:11:46.851Z,17.33
2022-11-07T14:14:15.237Z,16.58
2022-11-07T14:16:46.116Z,16.67
2022-11-07T14:19:27.381Z,17.38
2022-11-07T14:21:55.777Z,17.05
2022-11-07T14:24:28.859Z,18.15
2022-11-07T14:27:05.555Z,17.35
2022-11-07T14:29:33.433Z,16.77
2022-11-07T14:32:06.642Z,17.05
2022-11-07T14:34:45.010Z,17.05
2022-11-07T14:37:16.916Z,16.75
2022-11-07T14:39:44.954Z,16.97
2022-11-07T14:42:17.717Z,16.90
2022-11-07T14:44:54.467Z,18.55
2022-11-07T14:47:29.213Z,17.05
2022-11-07T14:49:57.698Z,18.17
2022-11-07T14:52:40.700Z,18.95
2022-11-07T14:55:37.156Z,17.92
2022-11-07T14:58:05.823Z,17.98
2022-11-07T15:00:34.028Z,17.80
2022-11-07T15:03:01.153Z,18.20
2022-11-07T15:05:45.101Z,18.20
2022-11-07T15:08:28.521Z,18.00
2022-11-07T15:11:03.872Z,17.33
2022-11-07T15:13:35.056Z,18.27
2022-11-07T15:16:38.979Z,16.90
2022-11-07T15:19:08.889Z,16.70
2022-11-07T15:21:50.832Z,16.67
2022-11-07T15:24:34.555Z,17.60
2022-11-07T15:27:17.086Z,16.77
2022-11-07T15:30:13.601Z,16.55
2022-11-07T15:32:43.225Z,17.25
2022-11-07T15:35:37.992Z,17.17
2022-11-07T15:38:03.093Z,17.50
2022-11-07T15:40:30.361Z,16.42
2022-11-07T15:42:57.412Z,17.58
2022-11-07T15:45:24.774Z,17.10
2022-11-07T15:47:51.872Z,17.45
2022-11-07T15:50:24.863Z,17.40
2022-11-07T15:52:54.424Z,17.58
2022-11-07T15:55:23.180Z,16.80
2022-11-07T15:57:52.423Z,16.65
2022-11-07T16:00:22.389Z,16.98
2022-11-07T16:02:52.368Z,16.63
2022-11-07T16:05:19.361Z,16.42
2022-11-07T16:07:46.612Z,16.90
2022-11-07T16:10:21.730Z,16.17
2022-11-07T16:12:49.494Z,16.05
2022-11-07T16:15:17.873Z,16.50
2022-11-07T16:17:44.872Z,16.60
2022-11-07T16:20:21.593Z,16.35
2022-11-07T16:22:50.103Z,16.55
2022-11-07T16:25:22.037Z,16.75
2022-11-07T16:27:59.554Z,16.55
2022-11-07T16:30:27.626Z,16.95
2022-11-07T16:32:54.738Z,16.38
2022-11-07T16:35:22.351Z,16.58
2022-11-07T16:37:49.568Z,17.00
2022-11-07T16:40:19.328Z,16.08
2022-11-07T16:42:47.482Z,17.33
2022-11-07T16:45:16.480Z,17.08
2022-11-07T16:47:46.417Z,16.35
2022-11-07T16:50:15.798Z,17.40
2022-11-07T16:52:43.728Z,18.35
2022-11-07T16:55:20.147Z,18.15
2022-11-07T16:57:49.876Z,17.63
2022-11-07T17:02:46.391Z,17.85
2022-11-07T17:05:20.495Z,17.83
2022-11-07T17:07:49.403Z,16.77
2022-11-07T17:10:17.629Z,16.90
2022-11-07T17:12:44.535Z,17.10
2022-11-07T17:15:11.769Z,16.45
2022-11-07T17:17:40.490Z,16.33
2022-11-07T17:20:07.965Z,16.33
2022-11-07T17:22:34.684Z,17.20
2022-11-07T17:25:01.462Z,17.35
2022-11-07T17:27:28.307Z,17.63
2022-11-07T17:29:55.406Z,17.45
2022-11-07T17:32:25.442Z,17.90
2022-11-07T17:35:10.998Z,17.60
2022-11-07T17:37:39.508Z,16.80
2022-11-07T17:40:06.896Z,17.00
2022-11-07T17:42:37.832Z,17.10
2022-11-07T17:45:06.158Z,17.42
2022-11-07T17:47:34.486Z,17.27
2022-11-07T17:50:01.599Z,17.45
2022-11-07T17:52:28.309Z,17.33
2022-11-07T17:54:55.116Z,18.05
2022-11-07T17:57:22.264Z,17.20
2022-11-07T17:59:49.436Z,17.90
2022-11-07T18:02:18.113Z,17.40
2022-11-07T18:04:45.696Z,17.33
2022-11-07T18:07:13.083Z,17.92
2022-11-07T18:09:41.313Z,17.45
2022-11-07T18:12:09.154Z,17.13
2022-11-07T18:14:36.670Z,17.77
2022-11-07T18:17:03.913Z,17.52
2022-11-07T18:19:31.023Z,17.83
2022-11-07T18:21:58.385Z,16.85
2022-11-07T18:24:25.221Z,17.10
2022-11-07T18:26:52.167Z,16.73
2022-11-07T18:29:19.695Z,17.65
2022-11-07T18:31:50.736Z,18.17
2022-11-07T18:36:45.654Z,18.02
2022-11-07T18:39:18.507Z,18.20
2022-11-07T18:41:45.320Z,17.63
2022-11-07T18:44:12.548Z,17.55
2022-11-07T18:46:39.693Z,18.02
2022-11-07T18:49:07.292Z,18.13
2022-11-07T18:51:34.610Z,17.77
2022-11-07T18:54:03.203Z,18.70
2022-11-07T18:56:30.235Z,19.02
2022-11-07T18:58:57.293Z,17.92
2022-11-07T19:01:28.436Z,17.25
2022-11-07T19:03:56.648Z,17.42
2022-11-07T19:06:25.389Z,18.55
2022-11-07T19:08:52.398Z,17.05
2022-11-07T19:11:28.794Z,16.98
2022-11-07T19:13:59.767Z,17.88
2022-11-07T19:18:53.439Z,18.27
2022-11-07T19:21:21.596Z,18.75
2022-11-07T19:23:50.052Z,18.15
2022-11-07T19:26:19.158Z,18.52
2022-11-07T19:28:46.513Z,19.17
2022-11-07T19:31:14.058Z,18.90
2022-11-07T19:33:41.943Z,18.17
2022-11-07T19:36:16.692Z,19.15
2022-11-07T19:38:44.342Z,18.77
2022-11-07T19:41:12.448Z,18.17
2022-11-07T19:43:39.992Z,18.67
2022-11-07T19:46:09.885Z,17.95
2022-11-07T19:48:37.088Z,18.35
2022-11-07T19:51:08.449Z,18.30
2022-11-07T19:53:35.199Z,17.83
2022-11-07T19:56:08.733Z,17.70
2022-11-07T19:58:39.186Z,18.80
2022-11-07T20:01:10.853Z,17.02
2022-11-07T20:03:37.740Z,17.33
2022-11-07T20:06:04.886Z,17.70
2022-11-07T20:08:31.617Z,17.92
2022-11-07T20:10:58.325Z,18.23
2022-11-07T20:13:25.073Z,18.13
2022-11-07T20:15:51.780Z,17.55
2022-11-07T20:18:18.583Z,17.52
2022-11-07T20:20:45.345Z,17.08
2022-11-07T20:23:12.074Z,17.85
2022-11-07T20:25:42.002Z,18.23
2022-11-07T20:28:09.272Z,17.67
2022-11-07T20:30:36.026Z,18.20
2022-11-07T20:33:02.780Z,18.15
2022-11-07T20:35:29.563Z,17.52
2022-11-07T20:37:59.522Z,17.20
2022-11-07T20:40:29.148Z,17.60
2022-11-07T20:42:56.303Z,17.52
2022-11-07T20:45:23.019Z,17.38
2022-11-07T20:47:50.689Z,18.08
2022-11-07T20:50:17.501Z,16.63
2022-11-07T20:52:44.218Z,17.25
2022-11-07T20:55:11.782Z,17.13
2022-11-07T20:57:38.524Z,17.35
2022-11-07T21:00:05.775Z,17.42
2022-11-07T21:02:32.543Z,17.20
2022-11-07T21:07:48.311Z,17.13
2022-11-07T21:10:15.211Z,17.80
2022-11-07T21:12:42.912Z,16.60
2022-11-07T21:15:10.442Z,16.73
2022-11-07T21:17:37.414Z,17.48
2022-11-07T21:20:05.254Z,16.63
2022-11-07T21:22:32.456Z,17.70
2022-11-07T21:24:59.219Z,17.13
2022-11-07T21:27:25.990Z,17.35
2022-11-07T21:29:52.762Z,16.83
2022-11-07T21:32:19.455Z,17.67
2022-11-07T21:34:47.358Z,17.30
2022-11-07T21:37:14.095Z,16.67
2022-11-07T21:39:40.864Z,16.83
2022-11-07T21:42:07.575Z,17.45
2022-11-07T21:44:34.312Z,17.75
2022-11-07T21:47:01.112Z,17.38
2022-11-07T21:49:27.931Z,17.38
2022-11-07T21:51:56.966Z,16.90
2022-11-07T21:54:24.780Z,16.00
2022-11-07T21:56:51.591Z,17.10
2022-11-07T21:59:19.173Z,16.45
2022-11-07T22:01:48.814Z,16.58
2022-11-07T22:04:16.049Z,17.20
2022-11-07T22:06:45.127Z,17.50
2022-11-07T22:09:15.397Z,17.20
2022-11-07T22:11:42.260Z,17.27
2022-11-07T22:14:13.576Z,16.95
2022-11-07T22:16:40.436Z,17.95
2022-11-07T22:19:12.015Z,17.63
2022-11-07T22:21:39.885Z,16.88
2022-11-07T22:24:07.016Z,16.88
2022-11-07T22:26:33.762Z,16.90
2022-11-07T22:29:00.567Z,17.60
2022-11-07T22:31:30.381Z,16.92
2022-11-07T22:33:59.690Z,16.67
2022-11-07T22:36:26.557Z,16.48
2022-11-07T22:38:53.386Z,16.70
2022-11-07T22:41:24.700Z,16.15
2022-11-07T22:43:51.798Z,16.58
2022-11-07T22:46:21.372Z,16.00
2022-11-07T22:48:49.007Z,16.27
2022-11-07T22:51:19.912Z,16.48
2022-11-07T22:53:46.963Z,15.95
2022-11-07T22:56:15.848Z,16.70
2022-11-07T22:58:43.371Z,16.50
2022-11-07T23:01:25.334Z,16.85
2022-11-07T23:03:52.903Z,16.17
2022-11-07T23:06:20.421Z,17.17
2022-11-07T23:08:48.352Z,16.73
2022-11-07T23:11:52.887Z,16.58
2022-11-07T23:14:08.778Z,17.50
2022-11-07T23:16:40.373Z,16.52
2022-11-07T23:19:10.943Z,17.38
2022-11-07T23:21:37.740Z,16.73
2022-11-07T23:24:04.982Z,16.48
2022-11-07T23:26:35.526Z,17.13
2022-11-07T23:29:10.121Z,16.30
2022-11-07T23:31:39.486Z,17.15
2022-11-07T23:34:06.723Z,17.08
2022-11-07T23:36:33.607Z,17.20
2022-11-07T23:39:08.020Z,17.17
2022-11-07T23:41:35.035Z,16.60
2022-11-07T23:44:02.377Z,17.33
2022-11-07T23:46:47.738Z,16.77
2022-11-07T23:49:33.036Z,16.42
2022-11-07T23:51:59.817Z,16.95
2022-11-07T23:54:45.343Z,17.20
2022-11-07T23:57:12.105Z,17.80
2022-11-07T23:59:57.678Z,17.38
